Time;durP1;ratioP1;P1;durP2;ratioP2;P2;SDS_P1;SDS_P2;PMS_P1;PMS_P2;Temp;Humidity;BMP_temperature;BMP_pressure;BME280_temperature;BME280_humidity;BME280_pressure;Samples;Min_cycle;Max_cycle;Signal;HPM_P1;HPM_P2
2022/04/28 00:02:19;;;;;;;20.70;6.95;;;6.50;99.90;;;;;;5054486;28;20029;-62
2022/04/28 00:04:45;;;;;;;21.35;7.65;;;6.60;99.90;;;;;;5054421;28;20021;-62
2022/04/28 00:07:10;;;;;;;23.33;7.63;;;6.60;99.90;;;;;;5054350;28;20366;-63
2022/04/28 00:09:36;;;;;;;19.50;7.50;;;6.60;99.90;;;;;;5053823;28;20031;-62
2022/04/28 00:12:03;;;;;;;17.45;6.75;;;6.60;99.90;;;;;;5065863;28;20033;-63
2022/04/28 00:14:30;;;;;;;20.67;8.00;;;6.60;99.90;;;;;;5054236;28;20036;-62
2022/04/28 00:16:55;;;;;;;17.65;7.72;;;6.60;99.90;;;;;;5061736;28;20146;-63
2022/04/28 00:19:21;;;;;;;21.83;8.27;;;6.60;99.90;;;;;;5074442;28;20111;-62
2022/04/28 00:21:47;;;;;;;21.77;7.53;;;6.60;99.90;;;;;;5073804;28;20032;-62
2022/04/28 00:24:12;;;;;;;19.13;7.68;;;6.60;99.90;;;;;;5073923;28;20027;-62
2022/04/28 00:26:38;;;;;;;20.52;7.15;;;6.50;99.90;;;;;;5073751;28;20020;-63
2022/04/28 00:29:03;;;;;;;23.25;9.55;;;6.50;99.90;;;;;;5065754;28;20503;-63
2022/04/28 00:31:29;;;;;;;24.70;13.15;;;6.40;99.90;;;;;;5053584;28;20021;-63
2022/04/28 00:33:55;;;;;;;22.80;10.00;;;6.40;99.90;;;;;;5053630;28;20441;-62
2022/04/28 00:36:22;;;;;;;21.50;9.57;;;6.40;99.90;;;;;;5053541;28;20028;-63
2022/04/28 00:38:48;;;;;;;19.42;8.07;;;6.40;99.90;;;;;;5053611;28;20743;-62
2022/04/28 00:41:14;;;;;;;19.58;8.38;;;6.30;99.90;;;;;;5053570;28;20108;-63
2022/04/28 00:43:56;;;;;;;21.42;8.27;;;6.30;99.90;;;;;;5053472;28;20033;-62
2022/04/28 00:46:22;;;;;;;;;;;6.30;99.90;;;;;;5052620;28;20044;-62
2022/04/28 00:51:34;;;;;;;20.17;7.40;;;6.20;99.90;;;;;;5053020;28;20098;-63
2022/04/28 00:54:01;;;;;;;16.63;7.07;;;6.20;99.90;;;;;;5053433;28;20017;-63
2022/04/28 00:56:27;;;;;;;17.80;6.72;;;6.20;99.90;;;;;;5051981;28;20449;-62
2022/04/28 00:58:55;;;;;;;19.40;7.25;;;6.20;99.90;;;;;;5056962;28;20053;-62
2022/04/28 01:01:21;;;;;;;16.75;7.03;;;6.10;99.90;;;;;;5053269;28;20134;-62
2022/04/28 01:03:46;;;;;;;15.10;6.55;;;6.10;99.90;;;;;;5069350;28;20060;-62
2022/04/28 01:06:13;;;;;;;19.23;7.55;;;6.10;99.90;;;;;;5072674;28;20212;-62
2022/04/28 01:08:40;;;;;;;21.70;7.55;;;6.10;99.90;;;;;;5058814;28;20036;-62
2022/04/28 01:11:06;;;;;;;17.33;7.57;;;6.20;99.90;;;;;;5051725;28;20491;-62
2022/04/28 01:13:32;;;;;;;17.95;7.90;;;6.20;99.90;;;;;;5052306;28;20047;-62
2022/04/28 01:15:58;;;;;;;17.25;7.85;;;6.20;99.90;;;;;;5052997;28;20425;-62
2022/04/28 01:18:23;;;;;;;17.02;6.70;;;6.20;99.90;;;;;;5050934;28;20036;-62
2022/04/28 01:20:49;;;;;;;16.48;6.78;;;6.20;99.90;;;;;;5052197;28;20075;-62
2022/04/28 01:23:15;;;;;;;17.92;6.55;;;6.20;99.90;;;;;;5052480;28;20009;-62
2022/04/28 01:25:41;;;;;;;18.38;6.60;;;6.10;99.90;;;;;;5051984;28;20125;-63
2022/04/28 01:28:07;;;;;;;15.88;6.90;;;6.10;99.90;;;;;;5051998;28;20120;-62
2022/04/28 01:30:36;;;;;;;16.55;6.47;;;6.10;99.90;;;;;;5052192;28;20021;-62
2022/04/28 01:33:01;;;;;;;19.58;7.72;;;6.00;99.90;;;;;;5052480;28;20051;-62
2022/04/28 01:35:27;;;;;;;16.65;6.68;;;6.00;99.90;;;;;;5051766;28;20445;-63
2022/04/28 01:37:52;;;;;;;17.00;7.20;;;6.00;99.90;;;;;;5052008;28;20025;-62
2022/04/28 01:40:19;;;;;;;23.83;7.82;;;5.90;99.90;;;;;;5051889;28;20496;-62
2022/04/28 01:42:45;;;;;;;17.15;6.93;;;5.90;99.90;;;;;;5051443;28;20035;-62
2022/04/28 01:45:11;;;;;;;17.50;7.13;;;5.90;99.90;;;;;;5051015;28;20028;-62
2022/04/28 01:47:39;;;;;;;16.42;6.70;;;5.90;99.90;;;;;;5052053;28;20021;-62
2022/04/28 01:50:06;;;;;;;16.60;6.55;;;5.90;99.90;;;;;;5050307;28;20111;-63
2022/04/28 01:55:16;;;;;;;15.40;6.50;;;5.80;99.90;;;;;;5051204;28;20075;-63
2022/04/28 01:57:41;;;;;;;19.58;7.28;;;5.80;99.90;;;;;;5050216;28;20025;-63
2022/04/28 02:00:09;;;;;;;19.30;7.75;;;5.80;99.90;;;;;;5051001;28;20105;-62
2022/04/28 02:02:34;;;;;;;18.80;7.93;;;5.70;99.90;;;;;;5051370;28;20520;-63
2022/04/28 02:05:01;;;;;;;17.35;7.43;;;5.80;99.90;;;;;;5051454;28;20120;-62
2022/04/28 02:07:28;;;;;;;19.73;7.20;;;5.70;99.90;;;;;;5050095;28;20032;-63
2022/04/28 02:09:55;;;;;;;17.58;7.63;;;5.70;99.90;;;;;;5051731;28;20056;-63
2022/04/28 02:12:21;;;;;;;20.67;7.85;;;5.70;99.90;;;;;;5051190;28;20035;-63
2022/04/28 02:14:47;;;;;;;18.80;7.72;;;5.70;99.90;;;;;;5051780;28;20101;-63
2022/04/28 02:17:20;;;;;;;18.20;8.00;;;5.80;99.90;;;;;;5050444;28;20425;-62
2022/04/28 02:19:46;;;;;;;21.70;9.07;;;5.80;99.90;;;;;;5050778;28;20032;-63
2022/04/28 02:22:11;;;;;;;17.42;7.53;;;5.90;99.90;;;;;;5050835;28;20033;-62
2022/04/28 02:24:37;;;;;;;17.67;7.30;;;5.80;99.90;;;;;;5051201;28;20120;-62
2022/04/28 02:27:03;;;;;;;21.02;8.15;;;5.90;99.90;;;;;;5050825;28;20472;-61
2022/04/28 02:29:29;;;;;;;21.30;7.82;;;5.90;99.90;;;;;;5051515;28;20036;-62
2022/04/28 02:31:55;;;;;;;20.63;7.68;;;5.90;99.90;;;;;;5051188;28;20033;-62
2022/04/28 02:34:21;;;;;;;18.27;7.53;;;5.90;99.90;;;;;;5051739;28;20040;-63
2022/04/28 02:36:46;;;;;;;15.98;6.75;;;5.90;99.90;;;;;;5050923;28;20020;-62
2022/04/28 02:39:17;;;;;;;19.90;7.55;;;5.90;99.90;;;;;;5069515;28;20099;-62
2022/04/28 02:41:43;;;;;;;20.65;8.45;;;5.90;99.90;;;;;;5068362;28;20020;-62
2022/04/28 02:44:08;;;;;;;18.13;7.57;;;5.90;99.90;;;;;;5042587;28;20090;-62
2022/04/28 02:46:34;;;;;;;22.70;8.65;;;5.90;99.90;;;;;;5050882;28;20045;-62
2022/04/28 02:49:00;;;;;;;19.52;8.20;;;5.90;99.90;;;;;;5051329;28;20041;-61
2022/04/28 02:51:26;;;;;;;20.58;9.45;;;5.90;99.90;;;;;;5051679;28;20021;-62
2022/04/28 02:53:52;;;;;;;21.40;8.43;;;5.90;99.90;;;;;;5054096;28;20518;-63
2022/04/28 02:56:17;;;;;;;18.50;8.27;;;5.90;99.90;;;;;;5054921;28;20025;-62
2022/04/28 02:58:43;;;;;;;19.15;7.63;;;6.00;99.90;;;;;;5054604;28;20034;-62
2022/04/28 03:01:08;;;;;;;17.23;7.72;;;6.00;99.90;;;;;;5054519;28;20035;-62
2022/04/28 03:03:34;;;;;;;18.77;8.60;;;6.00;99.90;;;;;;5054258;28;20044;-62
2022/04/28 03:11:30;;;;;;;22.33;8.35;;;6.10;99.90;;;;;;5049660;28;20035;-63
2022/04/28 03:13:56;;;;;;;23.02;8.25;;;6.20;99.90;;;;;;5054741;28;20029;-62
2022/04/28 03:16:23;;;;;;;21.05;8.32;;;6.20;99.90;;;;;;5054644;28;20024;-63
2022/04/28 03:18:49;;;;;;;19.80;8.50;;;6.30;99.90;;;;;;5054672;28;20028;-61
2022/04/28 03:21:15;;;;;;;22.33;8.05;;;6.30;99.90;;;;;;5053383;28;20021;-62
2022/04/28 03:23:41;;;;;;;23.13;8.38;;;6.30;99.90;;;;;;5053915;28;20105;-62
2022/04/28 03:26:07;;;;;;;19.90;7.65;;;6.40;99.90;;;;;;5054709;28;20040;-63
2022/04/28 03:28:35;;;;;;;19.17;8.40;;;6.40;99.90;;;;;;5055048;28;20366;-62
2022/04/28 03:31:01;;;;;;;21.05;8.10;;;6.40;99.90;;;;;;5054670;28;20032;-62
2022/04/28 03:33:27;;;;;;;20.13;8.70;;;6.50;99.90;;;;;;5054585;28;20505;-62
2022/04/28 03:35:53;;;;;;;16.95;8.07;;;6.50;99.90;;;;;;5054507;28;20100;-62
2022/04/28 03:38:19;;;;;;;18.42;7.68;;;6.60;99.90;;;;;;5053683;28;20029;-64
2022/04/28 03:40:46;;;;;;;21.33;8.52;;;6.60;99.90;;;;;;5054451;28;20021;-62
2022/04/28 03:43:12;;;;;;;18.35;8.52;;;6.60;99.90;;;;;;5054332;28;20033;-63
2022/04/28 03:45:38;;;;;;;16.75;7.10;;;6.60;99.90;;;;;;5053184;28;20039;-66
2022/04/28 03:48:04;;;;;;;21.85;8.75;;;6.60;99.90;;;;;;5053571;28;20028;-64
2022/04/28 03:50:31;;;;;;;20.55;7.65;;;6.60;99.90;;;;;;5054168;28;20025;-64
2022/04/28 03:52:57;;;;;;;18.00;7.82;;;6.60;99.90;;;;;;5053930;28;20017;-63
2022/04/28 03:55:24;;;;;;;22.40;10.45;;;6.50;99.90;;;;;;5053863;28;20112;-65
2022/04/28 03:57:49;;;;;;;19.48;8.68;;;6.60;99.90;;;;;;5054444;28;20028;-65
2022/04/28 04:00:15;;;;;;;20.92;9.73;;;6.60;99.90;;;;;;5054224;28;20039;-65
2022/04/28 04:02:41;;;;;;;19.60;9.43;;;6.60;99.90;;;;;;5053842;28;20040;-62
2022/04/28 04:05:07;;;;;;;21.65;9.57;;;6.60;99.90;;;;;;5052719;28;20033;-61
2022/04/28 04:07:34;;;;;;;18.60;9.57;;;6.70;99.90;;;;;;5053771;28;20021;-64
2022/04/28 04:10:00;;;;;;;21.48;8.32;;;6.80;99.90;;;;;;5054047;28;20136;-63
2022/04/28 04:12:26;;;;;;;20.27;9.30;;;6.80;99.90;;;;;;5053514;28;20021;-66
2022/04/28 04:14:52;;;;;;;20.13;9.32;;;6.90;99.90;;;;;;5053810;28;20029;-64
2022/04/28 04:17:19;;;;;;;19.45;8.52;;;6.90;99.90;;;;;;5053496;28;20043;-63
2022/04/28 04:19:45;;;;;;;20.48;8.63;;;7.00;99.90;;;;;;5053644;28;20103;-63
2022/04/28 04:22:11;;;;;;;19.85;9.43;;;7.00;99.90;;;;;;5053358;28;20099;-62
2022/04/28 04:24:36;;;;;;;18.80;8.80;;;7.00;99.90;;;;;;5052692;28;20123;-62
2022/04/28 04:27:02;;;;;;;19.85;9.27;;;7.10;99.90;;;;;;5053123;28;20025;-62
2022/04/28 04:29:28;;;;;;;21.27;8.70;;;7.10;99.90;;;;;;5053164;28;20129;-62
2022/04/28 04:34:38;;;;;;;21.33;8.73;;;7.10;99.90;;;;;;5033566;28;20072;-61
2022/04/28 04:37:03;;;;;;;22.92;9.85;;;7.20;99.90;;;;;;5042838;28;20021;-62
2022/04/28 04:39:29;;;;;;;22.95;9.50;;;7.20;99.90;;;;;;5053103;28;20028;-62
2022/04/28 04:41:54;;;;;;;22.65;10.30;;;7.20;99.90;;;;;;5051898;28;20105;-62
2022/04/28 04:44:20;;;;;;;19.70;8.55;;;7.20;99.90;;;;;;5052467;28;20029;-63
2022/04/28 04:46:45;;;;;;;21.45;9.02;;;7.30;99.90;;;;;;5053129;28;20040;-63
2022/04/28 04:49:11;;;;;;;19.50;8.13;;;7.30;99.90;;;;;;5051482;28;20037;-62
2022/04/28 04:51:37;;;;;;;25.95;9.57;;;7.30;99.90;;;;;;5053103;28;20147;-62
2022/04/28 04:54:02;;;;;;;17.25;8.35;;;7.40;99.90;;;;;;5052903;28;20104;-63
2022/04/28 04:56:28;;;;;;;21.73;9.13;;;7.50;99.90;;;;;;5052869;28;20342;-62
2022/04/28 04:58:53;;;;;;;18.73;8.18;;;7.50;99.90;;;;;;5052252;28;20116;-62
2022/04/28 05:01:19;;;;;;;19.50;9.60;;;7.60;99.90;;;;;;5052967;28;20032;-63
2022/04/28 05:03:44;;;;;;;21.45;9.90;;;7.70;99.90;;;;;;5052127;28;20017;-63
2022/04/28 05:06:10;;;;;;;20.73;9.93;;;7.80;99.90;;;;;;5052944;28;20048;-62
2022/04/28 05:08:36;;;;;;;20.27;9.65;;;7.80;99.90;;;;;;5052352;28;20029;-63
2022/04/28 05:11:01;;;;;;;20.95;9.30;;;8.00;99.90;;;;;;5048505;28;20029;-62
2022/04/28 05:13:27;;;;;;;23.25;8.82;;;8.10;99.90;;;;;;5044678;28;20369;-62
2022/04/28 05:15:53;;;;;;;19.45;8.65;;;8.20;99.90;;;;;;5052780;28;20035;-62
2022/04/28 05:18:18;;;;;;;17.92;8.23;;;8.20;99.90;;;;;;5052225;28;20115;-62
2022/04/28 05:20:44;;;;;;;20.40;8.82;;;8.30;99.90;;;;;;5053093;28;20352;-62
2022/04/28 05:23:09;;;;;;;19.40;8.73;;;8.40;99.90;;;;;;5052358;28;20025;-61
2022/04/28 05:25:36;;;;;;;21.17;9.27;;;8.60;99.90;;;;;;5052494;28;20358;-63
2022/04/28 05:28:02;;;;;;;21.88;9.10;;;8.70;99.90;;;;;;5052181;28;20135;-62
2022/04/28 05:30:27;;;;;;;19.50;8.88;;;8.80;99.90;;;;;;5052416;28;20091;-62
2022/04/28 05:32:53;;;;;;;20.83;9.55;;;9.00;99.90;;;;;;5052594;28;20079;-62
2022/04/28 05:35:19;;;;;;;17.85;8.68;;;9.10;99.90;;;;;;5052511;28;20025;-61
2022/04/28 05:37:45;;;;;;;22.92;8.98;;;9.20;99.90;;;;;;5052695;28;20033;-61
2022/04/28 05:40:12;;;;;;;24.40;8.55;;;9.40;99.90;;;;;;5052907;28;20040;-62
2022/04/28 05:48:10;;;;;;;16.98;7.53;;;9.80;99.90;;;;;;5070020;28;20059;-62
2022/04/28 05:50:38;;;;;;;18.60;7.80;;;10.00;99.90;;;;;;5050746;28;20094;-60
2022/04/28 05:53:04;;;;;;;21.05;8.50;;;10.20;99.90;;;;;;5052050;28;20053;-61
2022/04/28 05:55:29;;;;;;;20.38;7.65;;;10.30;99.90;;;;;;5052463;28;20488;-61
2022/04/28 05:57:58;;;;;;;17.60;7.43;;;10.50;99.90;;;;;;5050301;28;20021;-62
2022/04/28 06:00:28;;;;;;;24.08;7.93;;;10.70;99.90;;;;;;5051674;28;20120;-61
2022/04/28 06:02:54;;;;;;;19.95;8.55;;;10.80;99.90;;;;;;5052376;28;20017;-62
2022/04/28 06:05:21;;;;;;;19.30;7.22;;;11.00;99.90;;;;;;5052155;28;20468;-61
2022/04/28 06:07:47;;;;;;;20.17;8.35;;;11.10;99.90;;;;;;5052068;28;20017;-61
2022/04/28 06:10:13;;;;;;;22.45;7.88;;;11.20;99.90;;;;;;5051561;28;20472;-61
2022/04/28 06:12:42;;;;;;;20.17;7.70;;;11.40;99.90;;;;;;5059679;28;20028;-63
2022/04/28 06:15:08;;;;;;;16.85;8.75;;;11.50;99.90;;;;;;5056505;28;20032;-62
2022/04/28 06:17:34;;;;;;;18.60;7.90;;;11.60;99.90;;;;;;5054337;28;20115;-62
2022/04/28 06:19:59;;;;;;;21.13;8.60;;;11.70;99.90;;;;;;5072178;28;20106;-62
2022/04/28 06:22:25;;;;;;;15.63;7.40;;;11.80;99.90;;;;;;5071924;28;20036;-65
2022/04/28 06:24:54;;;;;;;15.50;7.18;;;11.90;99.90;;;;;;5072051;28;20599;-64
2022/04/28 06:27:21;;;;;;;21.05;8.43;;;11.90;99.90;;;;;;5072125;28;20040;-61
2022/04/28 06:29:49;;;;;;;18.60;7.82;;;12.00;99.90;;;;;;5072268;28;20025;-61
2022/04/28 06:32:19;;;;;;;17.83;7.38;;;12.10;99.90;;;;;;5056019;28;20025;-62
2022/04/28 06:34:45;;;;;;;17.58;7.90;;;12.30;99.90;;;;;;5053742;28;20027;-62
2022/04/28 06:37:11;;;;;;;18.33;6.85;;;12.40;99.90;;;;;;5055561;28;20025;-62
2022/04/28 06:39:37;;;;;;;17.77;6.80;;;12.50;99.90;;;;;;5056055;28;20037;-63
2022/04/28 06:42:04;;;;;;;16.02;7.45;;;12.50;99.90;;;;;;5055665;28;20021;-63
2022/04/28 06:44:29;;;;;;;22.27;7.28;;;12.60;99.90;;;;;;5056012;28;20036;-63
2022/04/28 06:46:55;;;;;;;19.30;7.15;;;12.70;99.90;;;;;;5054255;28;20029;-63
2022/04/28 06:49:20;;;;;;;22.63;7.05;;;12.80;99.90;;;;;;5055928;28;20338;-64
2022/04/28 06:51:46;;;;;;;15.55;6.75;;;12.90;99.90;;;;;;5055101;28;20071;-62
2022/04/28 06:54:12;;;;;;;15.43;6.78;;;13.00;99.90;;;;;;5055429;28;20107;-62
2022/04/28 06:56:38;;;;;;;15.70;5.85;;;13.00;99.90;;;;;;5054885;28;20533;-62
2022/04/28 06:59:04;;;;;;;14.07;5.35;;;13.00;99.90;;;;;;5055514;28;20067;-62
2022/04/28 07:01:31;;;;;;;16.90;5.05;;;13.10;99.90;;;;;;5054857;28;20025;-63
2022/04/28 07:03:57;;;;;;;12.88;4.88;;;13.20;99.90;;;;;;5052789;28;20029;-62
2022/04/28 07:06:22;;;;;;;16.55;5.05;;;13.20;99.90;;;;;;5054302;28;20037;-62
2022/04/28 07:08:48;;;;;;;13.45;4.38;;;13.30;99.90;;;;;;5050563;28;20032;-61
2022/04/28 07:11:13;;;;;;;15.18;4.65;;;13.30;99.90;;;;;;5052044;28;20028;-61
2022/04/28 07:13:39;;;;;;;17.42;4.90;;;13.30;99.90;;;;;;5039561;28;20357;-62
2022/04/28 07:16:05;;;;;;;12.30;4.63;;;13.30;99.90;;;;;;5052335;28;20457;-64
2022/04/28 07:18:31;;;;;;;17.60;5.18;;;13.40;99.90;;;;;;5054177;28;20033;-64
2022/04/28 07:20:58;;;;;;;15.65;4.85;;;13.30;99.90;;;;;;5054615;28;20072;-64
2022/04/28 07:23:23;;;;;;;12.07;4.90;;;13.30;99.90;;;;;;5053882;28;20029;-62
2022/04/28 07:25:49;;;;;;;14.82;4.63;;;13.30;99.90;;;;;;5054035;28;20388;-66
2022/04/28 07:28:14;;;;;;;13.82;5.07;;;13.30;99.90;;;;;;5054901;28;20045;-62
2022/04/28 07:30:40;;;;;;;14.48;5.28;;;13.30;99.90;;;;;;5054490;28;20021;-64
2022/04/28 07:33:07;;;;;;;15.00;4.97;;;13.40;99.90;;;;;;5053508;28;20029;-64
2022/04/28 07:35:32;;;;;;;14.60;4.63;;;13.40;99.90;;;;;;5054000;28;20036;-61
2022/04/28 07:37:58;;;;;;;11.57;4.20;;;13.50;99.90;;;;;;5054542;28;20033;-64
2022/04/28 07:40:24;;;;;;;15.32;4.85;;;13.50;99.90;;;;;;5049692;28;20029;-65
2022/04/28 07:42:49;;;;;;;11.50;4.82;;;13.50;99.90;;;;;;5053850;28;20025;-64
2022/04/28 07:45:15;;;;;;;14.40;4.25;;;13.50;99.90;;;;;;5054382;28;20040;-63
2022/04/28 07:47:40;;;;;;;9.80;4.70;;;13.50;99.90;;;;;;5051307;28;20032;-62
2022/04/28 07:50:06;;;;;;;14.35;4.60;;;13.50;99.90;;;;;;5054025;28;20032;-64
2022/04/28 07:52:32;;;;;;;15.52;4.55;;;13.60;99.90;;;;;;5054230;28;20032;-65
2022/04/28 07:54:57;;;;;;;13.25;4.72;;;13.60;99.90;;;;;;5054205;28;20044;-63
2022/04/28 07:57:23;;;;;;;13.48;4.38;;;13.70;99.90;;;;;;5054653;28;20031;-66
2022/04/28 07:59:49;;;;;;;10.88;4.00;;;13.70;99.80;;;;;;5053828;28;20033;-62
2022/04/28 08:02:15;;;;;;;10.13;4.15;;;13.90;99.30;;;;;;5054279;28;20064;-62
2022/04/28 08:04:41;;;;;;;17.33;5.60;;;14.00;99.10;;;;;;5053268;28;20036;-64
2022/04/28 08:07:07;;;;;;;15.52;3.75;;;14.10;98.70;;;;;;5053881;28;20391;-62
2022/04/28 08:09:33;;;;;;;13.75;4.90;;;14.10;97.20;;;;;;5053795;28;20024;-64
2022/04/28 08:11:59;;;;;;;15.32;4.22;;;14.20;97.60;;;;;;5054197;28;20021;-64
2022/04/28 08:14:25;;;;;;;15.77;4.75;;;14.20;97.60;;;;;;5052414;28;20494;-64
2022/04/28 08:16:53;;;;;;;12.80;5.03;;;14.30;97.80;;;;;;5054028;28;20017;-63
2022/04/28 08:19:19;;;;;;;13.40;4.90;;;14.30;97.90;;;;;;5053476;28;20025;-62
2022/04/28 08:21:46;;;;;;;11.30;4.40;;;14.30;97.40;;;;;;5053422;28;20086;-66
2022/04/28 08:24:12;;;;;;;11.05;3.25;;;14.30;97.40;;;;;;5051965;28;20074;-62
2022/04/28 08:26:38;;;;;;;8.20;2.78;;;14.20;96.60;;;;;;5053887;28;20044;-65
2022/04/28 08:29:04;;;;;;;6.88;2.28;;;14.00;96.10;;;;;;5053354;28;20045;-62
2022/04/28 08:31:30;;;;;;;12.55;3.20;;;13.70;96.00;;;;;;5053148;28;20501;-64
2022/04/28 08:33:56;;;;;;;9.43;2.50;;;13.60;96.10;;;;;;5049954;28;20368;-68
2022/04/28 08:36:22;;;;;;;7.82;2.50;;;13.70;96.40;;;;;;5053565;28;20025;-64
2022/04/28 08:38:47;;;;;;;6.05;2.63;;;13.90;96.00;;;;;;5052969;28;20102;-65
2022/04/28 08:41:19;;;;;;;6.32;2.63;;;14.20;95.40;;;;;;5053505;28;20032;-67
2022/04/28 08:43:44;;;;;;;9.88;3.20;;;14.40;95.60;;;;;;5052992;28;20025;-63
2022/04/28 08:48:56;;;;;;;5.85;3.17;;;15.00;93.90;;;;;;5054107;28;20113;-65
2022/04/28 08:51:25;;;;;;;9.95;2.80;;;15.40;93.40;;;;;;5052214;28;20024;-66
2022/04/28 08:53:51;;;;;;;6.68;2.28;;;15.70;92.80;;;;;;5053075;28;20017;-63
2022/04/28 08:56:19;;;;;;;9.15;3.45;;;15.90;92.30;;;;;;5052790;28;20108;-61
2022/04/28 08:58:45;;;;;;;9.70;3.17;;;16.10;91.90;;;;;;5053135;28;20040;-61
2022/04/28 09:01:11;;;;;;;13.73;3.78;;;16.10;91.90;;;;;;5052181;28;20029;-61
2022/04/28 09:03:37;;;;;;;8.90;3.28;;;16.20;91.80;;;;;;5052726;28;20029;-61
2022/04/28 09:06:16;;;;;;;10.20;2.80;;;16.60;91.00;;;;;;5051600;28;20040;-61
2022/04/28 09:08:45;;;;;;;8.85;2.78;;;16.80;90.50;;;;;;5053422;28;20021;-63
2022/04/28 09:11:21;;;;;;;11.40;3.00;;;17.00;90.20;;;;;;5050043;28;20020;-63
2022/04/28 09:14:11;;;;;;;8.50;2.88;;;17.50;89.60;;;;;;5051106;28;20433;-63
2022/04/28 09:16:49;;;;;;;10.15;2.80;;;18.50;89.10;;;;;;5032906;28;20079;-63
2022/04/28 09:19:23;;;;;;;11.27;2.60;;;20.30;84.50;;;;;;5049392;28;20052;-62
2022/04/28 09:21:59;;;;;;;10.88;3.30;;;20.70;79.40;;;;;;5050784;28;20416;-64
2022/04/28 09:24:26;;;;;;;8.43;2.60;;;20.60;79.30;;;;;;5052170;28;20025;-63
2022/04/28 09:26:54;;;;;;;7.80;2.40;;;20.60;77.80;;;;;;5051033;28;20037;-64
2022/04/28 09:29:21;;;;;;;13.23;3.10;;;20.50;77.50;;;;;;5052224;28;20055;-64
2022/04/28 09:31:52;;;;;;;8.88;3.47;;;20.20;76.90;;;;;;5052311;28;20029;-65
2022/04/28 09:34:19;;;;;;;9.65;2.92;;;20.00;77.60;;;;;;5051563;28;20025;-61
2022/04/28 09:36:46;;;;;;;9.40;2.65;;;20.70;77.20;;;;;;5032709;28;20025;-64
2022/04/28 09:42:29;;;;;;;5.85;2.20;;;22.40;74.60;;;;;;5032593;28;20022;-65
2022/04/28 09:44:51;;;;;;;7.60;2.75;;;24.50;68.10;;;;;;5034826;28;20679;-66
2022/04/28 09:47:21;;;;;;;8.38;3.05;;;25.00;64.80;;;;;;5052419;28;20438;-63
2022/04/28 09:49:53;;;;;;;10.50;3.13;;;25.00;65.00;;;;;;5051755;28;20036;-67
2022/04/28 09:52:30;;;;;;;9.23;3.00;;;25.50;63.00;;;;;;5051705;28;20021;-63
2022/04/28 09:55:00;;;;;;;10.32;2.45;;;26.10;61.80;;;;;;5044375;28;20522;-64
2022/04/28 09:57:26;;;;;;;6.40;2.70;;;26.60;60.70;;;;;;5051074;28;20025;-63
2022/04/28 09:59:54;;;;;;;9.75;2.83;;;26.90;58.90;;;;;;5051752;28;20468;-65
2022/04/28 10:02:25;;;;;;;8.43;2.70;;;27.60;58.30;;;;;;5051537;28;20025;-64
2022/04/28 10:04:52;;;;;;;7.18;2.55;;;27.70;56.10;;;;;;5051383;28;20111;-63
2022/04/28 10:07:18;;;;;;;10.30;2.88;;;27.30;56.10;;;;;;5052195;28;20021;-63
2022/04/28 10:09:48;;;;;;;4.70;2.72;;;26.80;55.90;;;;;;5051522;28;20025;-63
2022/04/28 10:12:22;;;;;;;8.35;2.90;;;26.30;56.00;;;;;;5052059;28;20449;-63
2022/04/28 10:14:49;;;;;;;11.88;3.30;;;25.50;56.90;;;;;;5051564;28;20036;-66
2022/04/28 10:17:21;;;;;;;11.07;3.05;;;24.50;57.60;;;;;;5050450;28;20048;-62
2022/04/28 10:19:52;;;;;;;9.57;3.03;;;23.80;59.00;;;;;;5060594;28;20032;-63
2022/04/28 10:22:22;;;;;;;8.90;3.15;;;23.80;58.80;;;;;;5058214;28;20025;-66
2022/04/28 10:33:11;;;;;;;7.75;2.70;;;22.30;60.80;;;;;;5035016;28;20082;-67
2022/04/28 10:35:56;;;;;;;11.55;3.65;;;23.20;60.20;;;;;;5068594;28;20070;-63
2022/04/28 10:38:34;;;;;;;8.15;2.80;;;24.40;58.90;;;;;;5065730;28;20053;-66
2022/04/28 10:41:11;;;;;;;6.47;2.70;;;24.90;57.30;;;;;;5051418;28;20025;-63
2022/04/28 10:43:38;;;;;;;7.53;3.22;;;24.60;56.90;;;;;;5050695;28;20036;-64
2022/04/28 10:46:09;;;;;;;11.27;2.97;;;24.10;57.20;;;;;;5050542;28;20435;-64
2022/04/28 10:48:42;;;;;;;7.25;2.92;;;22.90;58.70;;;;;;5050181;28;20020;-64
2022/04/28 10:51:18;;;;;;;10.00;2.92;;;22.40;60.00;;;;;;5055711;28;20020;-64
2022/04/28 10:53:58;;;;;;;8.70;3.25;;;22.90;59.60;;;;;;5063997;28;20595;-65
2022/04/28 10:56:28;;;;;;;9.10;2.38;;;23.70;58.40;;;;;;5051118;28;20151;-66
2022/04/28 10:59:01;;;;;;;13.13;2.80;;;24.40;58.10;;;;;;5050327;28;20025;-63
2022/04/28 11:01:29;;;;;;;9.13;3.20;;;25.20;57.30;;;;;;5051014;28;20387;-65
2022/04/28 11:04:00;;;;;;;8.90;2.78;;;25.90;56.40;;;;;;5050653;28;20028;-66
2022/04/28 11:06:29;;;;;;;6.25;2.95;;;26.60;56.10;;;;;;5050550;28;20025;-64
2022/04/28 11:08:56;;;;;;;7.07;2.75;;;27.20;55.30;;;;;;5051662;28;20025;-67
2022/04/28 11:11:25;;;;;;;9.77;2.80;;;27.40;54.10;;;;;;5050368;28;20021;-62
2022/04/28 11:13:57;;;;;;;11.60;3.10;;;26.80;54.30;;;;;;5052647;28;20021;-65
2022/04/28 11:16:24;;;;;;;8.45;3.13;;;26.30;54.90;;;;;;5047067;28;20102;-62
2022/04/28 11:18:49;;;;;;;7.53;2.90;;;26.50;55.00;;;;;;5035307;28;20017;-62
2022/04/28 11:21:15;;;;;;;6.50;2.90;;;26.80;53.80;;;;;;5034995;28;20475;-63
2022/04/28 11:23:44;;;;;;;8.70;2.58;;;26.80;53.90;;;;;;5050171;28;20082;-62
2022/04/28 11:26:10;;;;;;;10.88;3.33;;;26.70;54.10;;;;;;5054910;28;20082;-61
2022/04/28 11:28:36;;;;;;;5.43;3.33;;;26.10;54.80;;;;;;5052038;28;20049;-62
2022/04/28 11:31:10;;;;;;;8.10;2.90;;;26.00;54.90;;;;;;5054385;28;20017;-67
2022/04/28 11:33:41;;;;;;;7.45;3.28;;;26.20;54.60;;;;;;5054819;28;20349;-61
2022/04/28 11:36:18;;;;;;;7.68;3.15;;;26.50;54.30;;;;;;5053406;28;20353;-63
2022/04/28 11:38:52;;;;;;;12.30;3.38;;;26.90;53.80;;;;;;5054772;28;20108;-65
2022/04/28 11:41:31;;;;;;;9.77;3.00;;;27.40;53.40;;;;;;5054754;28;20028;-65
2022/04/28 11:44:06;;;;;;;8.32;3.20;;;27.70;52.70;;;;;;5054730;28;20029;-62
2022/04/28 11:46:34;;;;;;;7.10;3.08;;;27.20;53.00;;;;;;5054736;28;20041;-62
2022/04/28 11:48:59;;;;;;;9.20;3.08;;;26.20;53.70;;;;;;5053656;28;20099;-62
2022/04/28 11:51:25;;;;;;;10.50;3.63;;;25.50;55.50;;;;;;5054033;28;20111;-62
2022/04/28 11:53:52;;;;;;;12.15;4.43;;;25.70;55.00;;;;;;5054087;28;20029;-62
2022/04/28 11:56:25;;;;;;;7.57;2.80;;;26.20;54.70;;;;;;5052898;28;20024;-62
2022/04/28 11:58:53;;;;;;;10.48;3.40;;;26.80;54.50;;;;;;5073421;28;20095;-63
2022/04/28 12:01:20;;;;;;;5.55;2.78;;;27.30;53.50;;;;;;5062646;28;20120;-62
2022/04/28 12:03:55;;;;;;;10.30;3.15;;;27.20;53.50;;;;;;5048325;28;20013;-61
2022/04/28 12:06:23;;;;;;;10.85;3.45;;;27.00;53.80;;;;;;5034426;28;20039;-62
2022/04/28 12:08:58;;;;;;;8.77;2.67;;;26.80;53.60;;;;;;5033568;28;20026;-63
2022/04/28 12:14:23;;;;;;;10.25;3.15;;;26.40;53.60;;;;;;5034248;28;20028;-62
2022/04/28 12:19:59;;;;;;;8.82;3.40;;;24.60;55.10;;;;;;5034117;28;20031;-63
2022/04/28 12:22:37;;;;;;;7.43;3.17;;;24.80;55.50;;;;;;5044327;28;20471;-63
2022/04/28 12:25:11;;;;;;;11.48;3.40;;;25.10;55.70;;;;;;5050366;28;20051;-61
2022/04/28 12:27:38;;;;;;;13.93;3.50;;;25.40;55.10;;;;;;5041700;28;20044;-62
2022/04/28 12:30:08;;;;;;;7.03;2.83;;;25.60;55.00;;;;;;5053308;28;20024;-62
2022/04/28 12:32:42;;;;;;;7.38;3.05;;;25.90;54.40;;;;;;5056593;28;20026;-62
2022/04/28 12:35:08;;;;;;;7.55;2.60;;;25.90;53.80;;;;;;5072309;28;20016;-61
2022/04/28 12:37:39;;;;;;;8.95;3.00;;;25.80;54.20;;;;;;5060184;28;20381;-61
2022/04/28 12:40:05;;;;;;;8.40;2.67;;;25.50;54.70;;;;;;5053224;28;20103;-63
2022/04/28 12:42:48;;;;;;;6.22;2.63;;;25.40;54.50;;;;;;5053027;28;20450;-64
2022/04/28 12:45:14;;;;;;;6.90;3.17;;;24.90;54.80;;;;;;5053458;28;20035;-62
2022/04/28 12:47:42;;;;;;;8.90;2.95;;;24.30;55.60;;;;;;5053384;28;20071;-62
2022/04/28 12:50:24;;;;;;;12.50;3.35;;;23.60;57.00;;;;;;5053183;28;20021;-61
2022/04/28 12:52:50;;;;;;;11.25;3.63;;;23.20;57.70;;;;;;5052889;28;20036;-61
2022/04/28 12:55:18;;;;;;;7.85;2.90;;;23.00;58.00;;;;;;5053185;28;20033;-61
2022/04/28 12:57:45;;;;;;;11.00;3.28;;;22.80;58.30;;;;;;5052314;28;20361;-61
2022/04/28 13:00:11;;;;;;;8.57;3.30;;;22.60;58.60;;;;;;5052654;28;20527;-61
2022/04/28 13:02:44;;;;;;;9.13;3.25;;;22.30;58.80;;;;;;5050978;28;20024;-61
2022/04/28 13:05:18;;;;;;;9.45;2.92;;;22.10;59.60;;;;;;5052397;28;20048;-61
2022/04/28 13:07:44;;;;;;;9.52;3.00;;;22.00;59.60;;;;;;5052228;28;20028;-62
2022/04/28 13:10:16;;;;;;;10.70;3.20;;;21.50;60.40;;;;;;5052485;28;20025;-65
2022/04/28 13:12:42;;;;;;;;;;;21.00;61.30;;;;;;5052815;28;20017;-63
2022/04/28 13:15:10;;;;;;;7.45;2.83;;;20.50;62.20;;;;;;5052166;28;20261;-63
2022/04/28 13:17:36;;;;;;;6.70;3.40;;;20.10;63.10;;;;;;5050653;28;20029;-63
2022/04/28 13:20:04;;;;;;;8.60;2.67;;;19.80;63.70;;;;;;5052610;28;20021;-62
2022/04/28 13:22:30;;;;;;;8.30;2.95;;;19.80;64.40;;;;;;5051189;28;20078;-62
2022/04/28 13:24:55;;;;;;;10.93;3.00;;;19.70;64.40;;;;;;5052082;28;20028;-62